Latest Weather Observations for Karratha

IDW60801

Issued at 4:53 pm WST Wednesday 10 August 2022 (issued every 10 minutes, with the page automatically refreshed every 10 minutes)

About weather observations | Map of weather stations | Latest weather observations for WA | Other Formats
Station Details ID: 004083 Name: KARRATHA AERO Lat: -20.71 Lon: 116.77 Height: 5.3 m
Data from the previous 72 hours. | See also: Recent months at Karratha
Date/Time
WST
Temp
°C
App
Temp
°C
Dew
Point
°C
Rel
Hum
%
Delta-T
°C
Wind Press
QNH
hPa
Press
MSL
hPa
Rain since
9am
mm
Dir  Spd
km/h
Gust
km/h
Spd
kts
Gust
kts
10/04:30pm 24.5 20.1 7.6 34 8.9 NE 20 26 11 14 1014.4 1014.4 0.0
10/04:00pm 25.1 21.3 7.7 33 9.2 NNE 17 20 9 11 1014.3 1014.3 0.0
10/03:30pm 25.0 20.5 6.2 30 9.7 NNE 19 24 10 13 1014.3 1014.3 0.0
10/03:00pm 25.1 20.9 7.3 32 9.4 NNE 19 24 10 13 1014.3 1014.3 0.0
10/02:30pm 24.5 19.7 5.8 30 9.5 NNE 20 26 11 14 1014.6 1014.6 0.0
10/02:00pm 24.9 20.1 5.7 29 9.8 NNE 20 28 11 15 1014.8 1014.8 0.0
10/01:30pm 25.5 20.9 5.7 28 10.1 NE 19 24 10 13 1015.0 1015.0 0.0
10/01:00pm 25.5 20.6 5.1 27 10.3 ENE 20 28 11 15 1015.3 1015.3 0.0
10/12:30pm 25.5 19.7 2.2 22 11.2 ENE 22 32 12 17 1015.8 1015.8 0.0
10/12:00pm 24.2 17.4 0.5 21 10.9 ENE 26 33 14 18 1016.3 1016.3 0.0
10/11:30am 24.3 18.1 1.9 23 10.6 ENE 24 35 13 19 1016.8 1016.8 0.0
10/11:00am 23.6 16.7 0.0 21 10.7 E 26 35 14 19 1017.1 1017.1 0.0
10/10:30am 23.1 15.8 0.2 22 10.4 E 28 33 15 18 1017.5 1017.5 0.0
10/10:00am 22.4 16.4 0.9 24 9.8 ESE 22 33 12 18 1017.6 1017.6 0.0
10/09:30am 21.1 14.7 0.9 26 9.2 ESE 24 33 13 18 1017.8 1017.8 0.0
10/09:00am 20.5 15.0 0.9 27 8.8 ESE 19 24 10 13 1017.7 1017.7 0.0
10/08:30am 19.1 14.7 2.5 33 7.6 SSE 15 19 8 10 1017.6 1017.6 0.0
10/08:00am 16.6 13.3 2.2 38 6.4 S 9 13 5 7 1017.2 1017.2 0.0
10/07:30am 12.5 9.7 2.9 52 4.2 SSW 7 9 4 5 1017.0 1017.0 0.0
10/07:00am 12.2 8.9 2.4 51 4.2 SSW 9 9 5 5 1016.7 1016.7 0.0
10/06:30am 13.7 10.4 2.3 46 5.0 SW 9 9 5 5 1016.3 1016.3 0.0
10/06:00am 14.0 10.3 2.3 45 5.1 SW 11 13 6 7 1015.9 1015.9 0.0
10/05:30am 14.8 11.5 2.4 43 5.5 SW 9 11 5 6 1015.5 1015.5 0.0
10/05:00am 15.0 12.1 2.5 43 5.6 SSW 7 9 4 5 1015.1 1015.1 0.0
10/04:30am 15.1 12.3 2.3 42 5.7 SSW 6 9 3 5 1014.9 1014.9 0.0
10/04:00am 14.6 11.8 2.2 43 5.5 S 6 7 3 4 1015.0 1015.0 0.0
10/03:30am 15.1 12.2 2.6 43 5.6 S 7 9 4 5 1014.9 1014.9 0.0
10/03:00am 15.9 12.3 2.7 41 5.9 S 11 13 6 7 1014.8 1014.8 0.0
10/02:30am 16.9 13.3 2.9 39 6.4 S 11 13 6 7 1014.6 1014.6 0.0
10/02:00am 18.4 13.6 2.7 35 7.2 S 17 20 9 11 1014.5 1014.5 0.0
10/01:30am 19.2 14.2 3.8 36 7.3 SSW 19 24 10 13 1014.5 1014.5 0.0
10/01:00am 19.5 16.0 5.6 40 6.8 SSW 13 17 7 9 1014.8 1014.8 0.0
10/12:30am 20.3 16.4 5.5 38 7.3 S 15 19 8 10 1014.7 1014.7 0.0
10/12:00am 20.2 16.1 6.2 40 7.0 SSW 17 19 9 10 1014.8 1014.8 0.0
 
Date/Time
WST
Temp
°C
App
Temp
°C
Dew
Point
°C
Rel
Hum
%
Delta-T
°C
Wind Press
QNH
hPa
Press
MSL
hPa
Rain since
9am
mm
Dir  Spd
km/h
Gust
km/h
Spd
kts
Gust
kts
09/11:30pm 19.8 16.3 7.2 44 6.4 SSW 15 15 8 8 1015.0 1015.0 0.0
09/11:00pm 19.7 17.8 7.4 45 6.3 SW 7 7 4 4 1015.2 1015.2 0.0
09/10:30pm 19.6 17.0 7.7 46 6.1 SSW 11 13 6 7 1015.2 1015.2 0.0
09/10:00pm 19.4 16.4 7.8 47 5.9 SSW 13 13 7 7 1015.1 1015.1 0.0
09/09:30pm 19.3 17.4 7.7 47 5.9 SSW 7 7 4 4 1015.3 1015.3 0.0
09/09:00pm 19.2 16.6 7.6 47 5.9 SSW 11 11 6 6 1015.1 1015.1 0.0
09/08:30pm 20.0 17.7 7.4 44 6.4 SW 9 9 5 5 1014.9 1014.9 0.0
09/08:00pm 20.2 17.8 7.2 43 6.6 SW 9 9 5 5 1014.5 1014.5 0.0
09/07:30pm 20.7 18.7 7.0 41 7.0 SSW 7 7 4 4 1014.2 1014.2 0.0
09/07:00pm 21.0 19.0 6.9 40 7.2 S 7 9 4 5 1014.0 1014.0 0.0
09/06:30pm 21.6 18.8 7.1 39 7.4 S 11 13 6 7 1013.6 1013.6 0.0
09/06:00pm 21.6 19.2 7.1 39 7.4 S 9 11 5 6 1013.5 1013.5 0.0
09/05:30pm 22.6 18.9 6.4 35 8.3 S 15 20 8 11 1013.3 1013.3 0.0
09/05:00pm 23.0 18.5 6.3 34 8.5 S 19 24 10 13 1013.1 1013.1 0.0
09/04:30pm 23.3 18.2 6.1 33 8.8 SSW 22 28 12 15 1013.0 1013.0 0.0
09/04:00pm 23.4 17.9 5.8 32 8.9 S 24 30 13 16 1012.9 1012.9 0.0
09/03:30pm 23.6 18.1 6.0 32 9.0 S 24 32 13 17 1012.8 1012.8 0.0
09/03:00pm 23.9 18.4 5.8 31 9.2 S 24 30 13 16 1012.9 1012.9 0.0
09/02:30pm 23.7 18.5 5.6 31 9.2 SSW 22 28 12 15 1013.0 1013.0 0.0
09/02:00pm 23.7 18.9 5.6 31 9.2 SSW 20 28 11 15 1013.3 1013.3 0.0
09/01:30pm 23.8 18.6 5.7 31 9.2 S 22 28 12 15 1013.4 1013.4 0.0
09/01:00pm 23.6 18.9 5.0 30 9.3 S 19 24 10 13 1013.8 1013.8 0.0
09/12:30pm 24.2 20.1 6.0 31 9.3 S 17 22 9 12 1014.1 1014.1 0.0
09/12:00pm 23.4 18.1 4.9 30 9.2 S 22 28 12 15 1014.3 1014.3 0.0
09/11:30am 24.0 18.7 4.9 29 9.6 S 22 28 12 15 1014.5 1014.5 0.0
09/11:00am 23.5 18.6 4.9 30 9.3 S 20 28 11 15 1014.7 1014.7 0.0
09/10:30am 23.1 17.3 4.6 30 9.1 S 24 30 13 16 1014.9 1014.9 0.0
09/10:00am 22.8 17.7 4.3 30 9.1 S 20 26 11 14 1015.0 1015.0 0.0
09/09:30am 22.7 16.8 3.8 29 9.2 S 24 30 13 16 1015.0 1015.0 0.0
09/09:00am 23.7 17.7 3.6 27 9.8 S 24 30 13 16 1014.6 1014.6 0.0
09/08:30am 23.2 16.9 3.7 28 9.5 S 26 33 14 18 1014.5 1014.5 0.0
09/08:00am 22.5 17.2 3.1 28 9.3 S 20 30 11 16 1014.2 1014.2 0.0
09/07:30am 20.2 17.0 5.1 37 7.4 WSW 11 13 6 7 1013.9 1013.9 0.0
09/07:00am 18.4 15.9 4.6 40 6.6 WSW 7 11 4 6 1013.4 1013.4 0.0
09/06:30am 18.3 15.0 4.8 41 6.5 WSW 11 13 6 7 1012.8 1012.8 0.0
09/06:00am 18.7 15.7 4.1 38 6.9 SW 9 11 5 6 1012.4 1012.4 0.0
09/05:30am 18.8 15.4 3.8 37 7.1 SSW 11 13 6 7 1012.0 1012.0 0.0
09/05:00am 19.2 15.4 3.8 36 7.3 SW 13 15 7 8 1011.9 1011.9 0.0
09/04:30am 19.1 14.9 3.7 36 7.3 WSW 15 17 8 9 1011.8 1011.8 0.0
09/04:00am 19.3 15.1 3.9 36 7.3 SW 15 17 8 9 1012.0 1012.0 0.0
09/03:30am 18.9 15.4 5.4 41 6.6 WSW 13 15 7 8 1011.9 1011.9 0.0
09/03:00am 18.9 16.0 6.7 45 6.1 SW 11 13 6 7 1011.9 1011.9 0.0
09/02:30am 20.1 17.1 9.1 49 5.8 SW 15 17 8 9 1012.2 1012.2 0.0
09/02:00am 20.4 17.4 10.8 54 5.2 WSW 17 19 9 10 1012.2 1012.2 0.0
09/01:30am 20.1 18.8 12.6 62 4.2 WSW 11 15 6 8 1012.4 1012.4 0.0
09/01:00am 20.2 18.6 12.9 63 4.1 WSW 13 15 7 8 1012.5 1012.5 0.0
09/12:30am 20.5 19.1 13.5 64 4.0 WSW 13 15 7 8 1012.9 1012.9 0.0
09/12:00am 20.7 19.1 13.9 65 3.9 WSW 15 19 8 10 1013.0 1013.0 0.0
 
Date/Time
WST
Temp
°C
App
Temp
°C
Dew
Point
°C
Rel
Hum
%
Delta-T
°C
Wind Press
QNH
hPa
Press
MSL
hPa
Rain since
9am
mm
Dir  Spd
km/h
Gust
km/h
Spd
kts
Gust
kts
08/11:30pm 20.9 19.3 13.8 64 4.1 WSW 15 19 8 10 1013.0 1013.0 0.0
08/11:00pm 21.2 19.2 13.9 63 4.2 WSW 17 19 9 10 1013.1 1013.1 0.0
08/10:30pm 21.6 19.4 14.5 64 4.2 WSW 19 22 10 12 1013.2 1013.2 0.0
08/10:00pm 21.9 19.7 15.0 65 4.1 WSW 20 26 11 14 1013.5 1013.5 0.0
08/09:30pm 21.9 19.9 15.0 65 4.1 WSW 19 24 10 13 1013.5 1013.5 0.0
08/09:00pm 22.1 19.7 14.5 62 4.5 WSW 20 24 11 13 1013.4 1013.4 0.0
08/08:30pm 22.5 19.4 13.3 56 5.3 WSW 22 26 12 14 1013.4 1013.4 0.0
08/08:00pm 22.8 20.2 13.8 57 5.2 WSW 20 24 11 13 1013.0 1013.0 0.0
08/07:30pm 23.3 20.1 13.2 53 5.8 W 22 26 12 14 1012.8 1012.8 0.0
08/07:00pm 23.9 21.0 12.2 48 6.7 W 19 24 10 13 1012.6 1012.6 0.0
08/06:30pm 23.8 22.3 13.1 51 6.2 WNW 13 17 7 9 1012.0 1012.0 0.0
08/06:00pm 23.9 21.1 12.5 49 6.5 WNW 19 26 10 14 1011.8 1011.8 0.0
08/05:30pm 24.4 21.8 12.0 46 7.1 WNW 17 22 9 12 1011.5 1011.5 0.0
08/05:00pm 24.6 21.5 11.5 43 7.4 NW 19 22 10 12 1011.3 1011.3 0.0
08/04:30pm 25.7 21.0 5.3 27 10.4 NW 19 22 10 12 1011.2 1011.2 0.0
08/04:00pm 26.2 21.7 6.8 29 10.2 WNW 20 24 11 13 1011.2 1011.2 0.0
08/03:30pm 26.9 23.1 7.4 29 10.4 NW 17 20 9 11 1010.9 1010.9 0.0
08/03:00pm 27.8 23.4 4.8 23 11.8 NW 17 20 9 11 1011.0 1011.0 0.0
08/02:30pm 28.0 24.0 3.0 20 12.4 NW 13 17 7 9 1011.2 1011.2 0.0
08/02:00pm 27.9 24.7 4.9 23 11.8 NW 11 19 6 10 1011.5 1011.5 0.0
08/01:30pm 27.4 24.2 5.1 24 11.4 NNW 11 17 6 9 1011.8 1011.8 0.0
08/01:00pm 27.6 24.4 5.2 24 11.5 NNE 11 19 6 10 1012.2 1012.2 0.0
08/12:30pm 26.9 23.3 5.2 25 11.1 N 13 17 7 9 1012.8 1012.8 0.0
08/12:00pm 27.2 23.9 4.3 23 11.6 NE 11 17 6 9 1013.4 1013.4 0.0
08/11:30am 26.8 23.4 4.0 23 11.4 NE 11 15 6 8 1013.7 1013.7 0.0
08/11:00am 26.4 23.4 5.9 27 10.6 ENE 11 15 6 8 1014.0 1014.0 0.0
08/10:30am 25.5 23.8 7.6 32 9.5 E 6 17 3 9 1014.5 1014.5 0.0
08/10:00am 25.2 22.8 6.9 31 9.6 ENE 9 13 5 7 1014.6 1014.6 0.0
08/09:30am 24.3 22.7 7.9 35 8.7 E 6 9 3 5 1014.8 1014.8 0.0
08/09:00am 22.8 21.3 10.6 46 6.7 SE 9 13 5 7 1014.7 1014.7 0.0
08/08:30am 20.4 18.9 11.9 58 4.7 S 11 13 6 7 1014.6 1014.6 0.0
08/08:00am 18.7 16.9 10.8 60 4.3 SSE 11 13 6 7 1014.2 1014.2 0.0
08/07:30am 15.4 13.9 10.4 72 2.6 SSE 9 13 5 7 1013.9 1013.9 0.0
08/07:00am 13.9 11.5 10.1 78 2.0 S 13 17 7 9 1013.7 1013.7 0.0
08/06:30am 13.7 11.7 10.3 80 1.8 S 11 13 6 7 1013.4 1013.4 0.0
08/06:00am 14.1 12.4 9.9 76 2.2 SSW 9 11 5 6 1013.2 1013.2 0.0
08/05:30am 15.7 14.4 11.1 74 2.5 WSW 9 11 5 6 1013.1 1013.1 0.0
08/05:00am 15.7 14.4 11.1 74 2.5 SW 9 9 5 5 1013.0 1013.0 0.0
08/04:30am 16.2 14.2 11.4 73 2.6 SW 13 13 7 7 1013.0 1013.0 0.0
08/04:00am 16.6 14.2 11.5 72 2.8 SW 15 17 8 9 1013.2 1013.2 0.0
08/03:30am 16.3 13.8 11.0 71 2.8 SW 15 17 8 9 1013.4 1013.4 0.0
08/03:00am 16.7 14.2 11.0 69 3.1 SW 15 17 8 9 1013.5 1013.5 0.0
08/02:30am 16.8 14.3 11.1 69 3.1 SW 15 17 8 9 1013.6 1013.6 0.0
08/02:00am 17.4 15.0 11.4 68 3.3 SW 15 17 8 9 1013.8 1013.8 0.0
08/01:30am 17.2 14.9 10.6 65 3.5 SW 13 15 7 8 1014.0 1014.0 0.0
08/01:00am 18.7 16.6 11.0 61 4.2 SW 13 15 7 8 1014.1 1014.1 0.0
08/12:30am 18.9 16.8 11.0 60 4.3 SW 13 15 7 8 1014.3 1014.3 0.0
08/12:00am 19.0 16.9 11.1 60 4.3 SW 13 15 7 8 1014.5 1014.5 0.0
 
Date/Time
WST
Temp
°C
App
Temp
°C
Dew
Point
°C
Rel
Hum
%
Delta-T
°C
Wind Press
QNH
hPa
Press
MSL
hPa
Rain since
9am
mm
Dir  Spd
km/h
Gust
km/h
Spd
kts
Gust
kts
07/11:30pm 18.6 16.2 11.4 63 3.9 SW 15 17 8 9 1014.8 1014.8 0.0
07/11:00pm 18.9 17.3 11.5 62 4.1 SW 11 13 6 7 1014.9 1014.9 0.0
07/10:30pm 19.8 20.7 12.8 64 3.9 CALM 0 0 0 0 1015.1 1015.1 0.0
07/10:00pm 20.1 19.3 12.8 63 4.1 WSW 9 11 5 6 1015.0 1015.0 0.0
07/09:30pm 19.8 18.7 12.1 61 4.3 WSW 9 11 5 6 1015.1 1015.1 0.0
07/09:00pm 19.9 18.3 11.4 58 4.7 SW 11 13 6 7 1015.2 1015.2 0.0
07/08:30pm 20.5 18.4 11.2 55 5.1 SW 13 15 7 8 1015.2 1015.2 0.0
07/08:00pm 22.4 19.9 11.2 49 6.2 W 15 17 8 9 1014.8 1014.8 0.0
07/07:30pm 22.4 20.7 11.2 49 6.2 NW 11 15 6 8 1014.4 1014.4 0.0
07/07:00pm 22.4 19.9 11.2 49 6.2 NW 15 20 8 11 1014.1 1014.1 0.0
07/06:30pm 22.5 20.5 11.6 50 6.1 NNW 13 17 7 9 1013.6 1013.6 0.0
07/06:00pm 22.9 20.5 10.0 44 7.0 NNW 13 19 7 10 1013.2 1013.2 0.0
07/05:30pm 23.9 21.1 8.7 38 8.1 NNW 13 17 7 9 1013.1 1013.1 0.0
07/05:00pm 25.0 21.1 1.2 21 11.2 NNE 11 15 6 8 1012.9 1012.9 0.0

Other formats

Comma delimited format used in spreadsheet applications
http://www.bom.gov.au/fwo/IDW60801/IDW60801.95307.axf

JavaScript Object Notation format (JSON) in row-major order
http://www.bom.gov.au/fwo/IDW60801/IDW60801.95307.json

Data quality

Most of these data are generated automatically and are frequently updated. Quality checks on data are not normally performed. It is possible for incorrect values to appear. Refer to information at About Latest Weather Observations and please check the disclaimer before using these data.